Time;durP1;ratioP1;P1;durP2;ratioP2;P2;SDS_P1;SDS_P2;PMS_P1;PMS_P2;Temp;Humidity;BMP_temperature;BMP_pressure;BME280_temperature;BME280_humidity;BME280_pressure;Samples;Min_cycle;Max_cycle;Signal;HPM_P1;HPM_P2
2021/12/13 00:00:16;;;;;;;6.47;4.70;;;9.00;99.90;;;;;;4995076;28;20182;-43
2021/12/13 00:02:51;;;;;;;5.60;4.37;;;9.00;99.90;;;;;;4995268;28;20268;-47
2021/12/13 00:05:20;;;;;;;5.70;4.33;;;8.90;99.90;;;;;;4994971;28;20166;-48
2021/12/13 00:07:55;;;;;;;6.17;4.47;;;8.90;99.90;;;;;;4994910;28;20178;-47
2021/12/13 00:10:28;;;;;;;6.50;4.33;;;8.90;99.90;;;;;;4977384;28;20274;-47
2021/12/13 00:13:07;;;;;;;6.73;4.87;;;8.90;99.90;;;;;;4995191;28;20586;-48
2021/12/13 00:15:38;;;;;;;5.23;4.10;;;8.90;99.90;;;;;;4977257;28;20281;-48
2021/12/13 00:18:07;;;;;;;7.57;4.47;;;8.80;99.90;;;;;;4977290;28;20174;-46
2021/12/13 00:20:41;;;;;;;5.30;4.00;;;8.80;99.90;;;;;;4994642;28;20640;-47
2021/12/13 00:23:17;;;;;;;5.27;4.13;;;8.80;99.90;;;;;;4994692;28;20207;-48
2021/12/13 00:25:47;;;;;;;6.67;4.33;;;8.80;99.90;;;;;;4994846;28;20579;-45
2021/12/13 00:28:17;;;;;;;6.13;3.97;;;8.80;99.90;;;;;;4994721;28;20305;-47
2021/12/13 00:31:10;;;;;;;4.33;3.93;;;8.80;99.90;;;;;;4994500;28;20716;-48
2021/12/13 00:33:44;;;;;;;7.17;4.10;;;8.80;99.90;;;;;;4976947;28;20592;-48
2021/12/13 00:36:24;;;;;;;4.97;3.90;;;8.80;99.90;;;;;;4994679;28;20511;-49
2021/12/13 00:38:57;;;;;;;4.33;3.70;;;8.80;99.90;;;;;;4994566;28;20173;-46
2021/12/13 00:41:28;;;;;;;5.33;4.03;;;8.80;99.90;;;;;;4976770;28;20213;-46
2021/12/13 00:44:04;;;;;;;5.67;4.13;;;8.80;99.90;;;;;;4994434;28;20285;-47
2021/12/13 00:46:30;;;;;;;5.60;3.97;;;8.80;99.90;;;;;;4993992;28;20162;-47
2021/12/13 00:48:59;;;;;;;6.03;4.07;;;8.80;99.90;;;;;;4994420;28;20254;-46
2021/12/13 00:51:29;;;;;;;4.27;3.83;;;8.80;99.90;;;;;;4994361;28;20202;-46
2021/12/13 00:53:58;;;;;;;6.10;3.50;;;8.80;99.90;;;;;;4994356;28;20176;-47
2021/12/13 00:56:45;;;;;;;4.37;3.57;;;8.80;99.90;;;;;;4994054;28;20179;-48
2021/12/13 00:59:21;;;;;;;5.20;3.57;;;8.80;99.90;;;;;;4994015;28;20174;-49
2021/12/13 01:01:57;;;;;;;4.43;3.50;;;8.70;99.90;;;;;;4993984;28;20198;-49
2021/12/13 01:04:51;;;;;;;3.73;3.37;;;8.70;99.90;;;;;;4994251;28;20176;-47
2021/12/13 01:07:32;;;;;;;4.03;3.57;;;8.70;99.90;;;;;;4977275;28;20190;-48
2021/12/13 01:10:16;;;;;;;5.53;3.60;;;8.70;99.90;;;;;;4993768;28;20178;-47
2021/12/13 01:12:44;;;;;;;4.33;3.63;;;8.80;99.90;;;;;;4993879;28;20201;-49
2021/12/13 01:15:15;;;;;;;4.17;3.40;;;8.70;99.90;;;;;;4993700;28;20249;-47
2021/12/13 01:20:27;;;;;;;3.63;3.23;;;8.70;99.90;;;;;;4993748;28;20162;-48
2021/12/13 01:23:00;;;;;;;4.97;3.43;;;8.70;99.90;;;;;;4976290;28;20212;-46
2021/12/13 01:28:08;;;;;;;6.10;3.97;;;8.70;99.90;;;;;;4994038;28;20274;-48
2021/12/13 01:30:38;;;;;;;8.23;3.77;;;8.70;99.90;;;;;;4993810;28;20701;-46
2021/12/13 01:33:08;;;;;;;6.03;3.70;;;8.70;99.90;;;;;;4993555;28;20241;-47
2021/12/13 01:35:40;;;;;;;6.57;3.97;;;8.70;99.90;;;;;;4976162;28;20186;-46
2021/12/13 01:38:12;;;;;;;4.50;3.80;;;8.70;99.90;;;;;;4993905;28;20528;-46
2021/12/13 01:40:41;;;;;;;4.80;3.60;;;8.60;99.90;;;;;;4993594;28;20197;-46
2021/12/13 01:43:14;;;;;;;5.53;4.07;;;8.70;99.90;;;;;;4993458;28;20198;-48
2021/12/13 01:45:44;;;;;;;3.97;3.53;;;8.70;99.90;;;;;;4993763;28;20159;-48
2021/12/13 01:48:21;;;;;;;4.53;3.93;;;8.70;99.90;;;;;;4976117;28;20219;-48
2021/12/13 01:50:53;;;;;;;5.27;4.37;;;8.70;99.90;;;;;;4976035;28;20185;-48
2021/12/13 01:53:54;;;;;;;5.70;4.40;;;8.70;99.90;;;;;;4993565;28;20531;-46
2021/12/13 01:56:46;;;;;;;5.40;4.30;;;8.70;99.90;;;;;;4989206;28;20674;-46
2021/12/13 01:59:44;;;;;;;6.20;4.20;;;8.70;99.90;;;;;;4996731;28;20213;-45
2021/12/13 02:02:30;;;;;;;5.27;4.20;;;8.60;99.90;;;;;;4979782;28;20234;-43
2021/12/13 02:04:58;;;;;;;4.73;4.20;;;8.70;99.90;;;;;;4997859;28;20637;-44
2021/12/13 02:07:27;;;;;;;4.70;3.87;;;8.70;99.90;;;;;;4997534;28;20659;-42
2021/12/13 02:09:57;;;;;;;5.27;4.77;;;8.70;99.90;;;;;;4997605;28;20260;-42
2021/12/13 02:12:28;;;;;;;5.10;4.00;;;8.70;99.90;;;;;;4997480;28;20656;-49
2021/12/13 02:17:45;;;;;;;4.40;4.00;;;8.70;99.90;;;;;;4997426;28;20217;-46
2021/12/13 02:20:19;;;;;;;4.80;4.23;;;8.70;99.90;;;;;;4996862;28;20667;-48
2021/12/13 02:22:46;;;;;;;6.07;4.33;;;8.70;99.90;;;;;;4996853;28;20202;-48
2021/12/13 02:25:17;;;;;;;6.27;4.13;;;8.60;99.90;;;;;;4996855;28;20655;-48
2021/12/13 02:27:48;;;;;;;5.20;4.70;;;8.60;99.90;;;;;;4997012;28;20174;-48
2021/12/13 02:30:43;;;;;;;4.93;4.20;;;8.60;99.90;;;;;;4996937;28;20241;-47
2021/12/13 02:33:13;;;;;;;4.90;3.93;;;8.60;99.90;;;;;;4985299;28;20248;-46
2021/12/13 02:35:42;;;;;;;6.30;4.13;;;8.60;99.90;;;;;;4979442;28;20186;-48
2021/12/13 02:38:11;;;;;;;4.77;4.00;;;8.60;99.90;;;;;;4979596;28;20540;-47
2021/12/13 02:40:37;;;;;;;5.63;4.23;;;8.60;99.90;;;;;;4979295;28;20186;-47
2021/12/13 02:43:06;;;;;;;7.43;4.10;;;8.60;99.90;;;;;;4996283;28;20206;-48
2021/12/13 02:45:42;;;;;;;5.07;4.13;;;8.60;99.90;;;;;;4996283;28;20637;-46
2021/12/13 02:48:21;;;;;;;4.97;4.13;;;8.60;99.90;;;;;;4996587;28;20525;-48
2021/12/13 02:51:11;;;;;;;8.47;4.33;;;8.60;99.90;;;;;;4996216;28;20241;-46
2021/12/13 02:53:50;;;;;;;5.47;4.13;;;8.60;99.90;;;;;;4996465;28;20171;-49
2021/12/13 02:56:18;;;;;;;5.07;4.03;;;8.60;99.90;;;;;;4996444;28;20250;-46
2021/12/13 02:58:46;;;;;;;6.27;4.80;;;8.60;99.90;;;;;;4996710;28;20178;-47
2021/12/13 03:01:20;;;;;;;5.47;4.70;;;8.60;99.90;;;;;;5010973;28;20652;-47
2021/12/13 03:03:50;;;;;;;5.27;4.17;;;8.70;99.90;;;;;;4996389;28;20162;-49
2021/12/13 03:06:22;;;;;;;4.97;4.20;;;8.60;99.90;;;;;;4996302;28;20175;-47
2021/12/13 03:08:58;;;;;;;6.00;4.27;;;8.60;99.90;;;;;;4996097;28;20174;-47
2021/12/13 03:11:31;;;;;;;6.00;4.10;;;8.70;99.90;;;;;;4995584;28;20205;-47
2021/12/13 03:14:13;;;;;;;6.73;5.13;;;8.60;99.90;;;;;;4995929;28;20205;-47
2021/12/13 03:16:50;;;;;;;5.07;4.40;;;8.60;99.90;;;;;;4995843;28;20166;-47
2021/12/13 03:19:42;;;;;;;5.43;4.43;;;8.60;99.90;;;;;;4996196;28;20240;-47
2021/12/13 03:22:35;;;;;;;6.30;5.03;;;8.60;99.90;;;;;;4986396;28;20222;-46
2021/12/13 03:25:32;;;;;;;6.43;4.93;;;8.60;99.90;;;;;;4995667;28;20181;-46
2021/12/13 03:28:31;;;;;;;8.43;4.97;;;8.50;99.90;;;;;;4995907;28;20291;-49
2021/12/13 03:31:03;;;;;;;7.77;5.07;;;8.60;99.90;;;;;;4995675;28;20162;-46
2021/12/13 03:33:52;;;;;;;5.70;4.50;;;8.60;99.90;;;;;;4995555;28;20241;-46
2021/12/13 03:36:39;;;;;;;5.70;5.03;;;8.50;99.90;;;;;;4986024;28;20580;-48
2021/12/13 03:39:08;;;;;;;6.27;5.23;;;8.50;99.90;;;;;;4978029;28;20192;-49
2021/12/13 03:41:38;;;;;;;6.80;4.67;;;8.50;99.90;;;;;;4995465;28;20198;-47
2021/12/13 03:44:09;;;;;;;7.33;5.20;;;8.60;99.90;;;;;;4996431;28;20568;-48
2021/12/13 03:46:36;;;;;;;7.53;5.37;;;8.60;99.90;;;;;;4995333;28;20162;-48
2021/12/13 03:49:05;;;;;;;6.80;5.40;;;8.60;99.90;;;;;;4995181;28;20183;-48
2021/12/13 03:51:36;;;;;;;6.47;5.33;;;8.60;99.90;;;;;;4995248;28;20209;-46
2021/12/13 03:54:04;;;;;;;11.27;5.30;;;8.60;99.90;;;;;;4995261;28;20174;-47
2021/12/13 03:56:36;;;;;;;8.57;5.77;;;8.60;99.90;;;;;;4995802;28;20538;-48
2021/12/13 03:59:12;;;;;;;6.73;5.43;;;8.60;99.90;;;;;;4995368;28;20197;-46
2021/12/13 04:01:55;;;;;;;8.03;5.10;;;8.60;99.90;;;;;;4995047;28;20283;-47
2021/12/13 04:04:24;;;;;;;7.33;5.17;;;8.50;99.90;;;;;;4995052;28;20506;-47
2021/12/13 04:06:57;;;;;;;7.50;5.70;;;8.50;99.90;;;;;;4994887;28;20182;-47
2021/12/13 04:09:25;;;;;;;6.80;5.00;;;8.60;99.90;;;;;;4995084;28;20621;-47
2021/12/13 04:11:57;;;;;;;7.97;5.90;;;8.50;99.90;;;;;;4994704;28;20663;-48
2021/12/13 04:14:30;;;;;;;7.20;5.23;;;8.60;99.90;;;;;;4977816;28;20201;-47
2021/12/13 04:17:19;;;;;;;6.07;4.57;;;8.50;99.90;;;;;;4977437;28;20182;-44
2021/12/13 04:19:48;;;;;;;5.93;5.27;;;8.50;99.90;;;;;;4994644;28;20738;-42
2021/12/13 04:22:17;;;;;;;6.43;5.47;;;8.50;99.90;;;;;;4994260;28;20565;-42
2021/12/13 04:24:45;;;;;;;6.83;5.30;;;8.50;99.90;;;;;;4994776;28;20182;-44
2021/12/13 04:27:30;;;;;;;6.97;4.80;;;8.50;99.90;;;;;;4994459;28;20232;-42
2021/12/13 04:30:00;;;;;;;6.40;5.10;;;8.50;99.90;;;;;;4994765;28;20181;-43
2021/12/13 04:32:31;;;;;;;6.80;4.93;;;8.50;99.90;;;;;;4994500;28;20252;-43
2021/12/13 04:35:03;;;;;;;5.47;4.50;;;8.40;99.90;;;;;;4994401;28;20178;-43
2021/12/13 04:37:34;;;;;;;7.63;5.33;;;8.50;99.90;;;;;;4977018;28;20301;-43
2021/12/13 04:40:10;;;;;;;6.43;5.00;;;8.40;99.90;;;;;;4994406;28;20629;-42
2021/12/13 04:42:36;;;;;;;5.97;4.30;;;8.40;99.90;;;;;;4995058;28;20305;-44
2021/12/13 04:45:10;;;;;;;4.90;4.30;;;8.40;99.90;;;;;;4976995;28;20292;-42
2021/12/13 04:47:54;;;;;;;7.47;5.03;;;8.40;99.90;;;;;;4994609;28;20173;-41
2021/12/13 04:50:23;;;;;;;6.87;4.67;;;8.40;99.90;;;;;;4976792;28;20170;-44
2021/12/13 04:52:49;;;;;;;6.83;4.73;;;8.40;99.90;;;;;;4994084;28;20285;-42
2021/12/13 04:55:23;;;;;;;8.27;4.57;;;8.40;99.90;;;;;;4994064;28;20205;-42
2021/12/13 04:57:53;;;;;;;5.07;3.90;;;8.40;99.90;;;;;;4994508;28;20163;-43
2021/12/13 05:00:22;;;;;;;4.77;4.23;;;8.30;99.90;;;;;;4994407;28;20282;-45
2021/12/13 05:02:52;;;;;;;6.13;4.10;;;8.40;99.90;;;;;;4993840;28;20653;-42
2021/12/13 05:05:19;;;;;;;5.37;4.23;;;8.40;99.90;;;;;;4993912;28;20180;-41
2021/12/13 05:07:48;;;;;;;5.77;4.33;;;8.30;99.90;;;;;;4994435;28;20254;-41
2021/12/13 05:10:15;;;;;;;6.47;4.23;;;8.30;99.90;;;;;;5009150;28;20182;-41
2021/12/13 05:12:56;;;;;;;4.33;3.40;;;8.30;99.90;;;;;;4994243;28;20198;-42
2021/12/13 05:15:25;;;;;;;5.53;3.70;;;8.40;99.90;;;;;;4993803;28;20193;-41
2021/12/13 05:17:52;;;;;;;5.27;3.40;;;8.40;99.90;;;;;;4993911;28;20181;-41
2021/12/13 05:20:26;;;;;;;4.70;4.07;;;8.30;99.90;;;;;;4993938;28;20663;-43
2021/12/13 05:23:08;;;;;;;5.03;3.57;;;8.40;99.90;;;;;;4976392;28;20210;-41
2021/12/13 05:25:37;;;;;;;4.47;3.40;;;8.30;99.90;;;;;;4993859;28;20178;-42
2021/12/13 05:28:13;;;;;;;4.37;3.63;;;8.30;99.90;;;;;;4994037;28;20587;-44
2021/12/13 05:31:09;;;;;;;7.13;4.37;;;8.30;99.90;;;;;;4994037;28;20625;-41
2021/12/13 05:33:38;;;;;;;4.20;3.10;;;8.30;99.90;;;;;;5011084;28;20596;-43
2021/12/13 05:36:26;;;;;;;4.47;3.17;;;8.30;99.90;;;;;;4997951;28;20268;-40
2021/12/13 05:39:11;;;;;;;8.00;3.33;;;8.30;99.90;;;;;;4980163;28;20182;-40
2021/12/13 05:41:39;;;;;;;10.37;3.93;;;8.30;99.90;;;;;;4980088;28;20205;-43
2021/12/13 05:44:10;;;;;;;6.30;3.00;;;8.30;99.90;;;;;;4997391;28;20178;-43
2021/12/13 05:46:42;;;;;;;5.97;3.33;;;8.30;99.90;;;;;;4997789;28;20249;-41
2021/12/13 05:49:17;;;;;;;3.30;3.00;;;8.30;99.90;;;;;;4997876;28;20633;-41
2021/12/13 05:51:47;;;;;;;5.77;3.37;;;8.30;99.90;;;;;;4997482;28;20276;-42
2021/12/13 05:54:36;;;;;;;3.47;3.17;;;8.30;99.90;;;;;;4997576;28;20221;-44
2021/12/13 05:57:07;;;;;;;3.23;2.90;;;8.30;99.90;;;;;;4997228;28;20193;-44
2021/12/13 05:59:36;;;;;;;3.83;3.40;;;8.30;99.90;;;;;;4997721;28;20201;-41
2021/12/13 06:02:10;;;;;;;3.80;3.07;;;8.30;99.90;;;;;;4997596;28;20210;-44
2021/12/13 06:04:56;;;;;;;5.33;2.97;;;8.30;99.90;;;;;;4997257;28;20651;-43
2021/12/13 06:07:28;;;;;;;6.17;3.37;;;8.20;99.90;;;;;;4997841;28;20513;-41
2021/12/13 06:10:07;;;;;;;7.80;3.10;;;8.30;99.90;;;;;;4997193;28;20265;-44
2021/12/13 06:12:36;;;;;;;4.47;3.13;;;8.20;99.90;;;;;;4997569;28;20683;-43
2021/12/13 06:15:29;;;;;;;5.87;3.03;;;8.20;99.90;;;;;;4997298;28;20196;-43
2021/12/13 06:18:04;;;;;;;5.03;2.80;;;8.20;99.90;;;;;;4991130;28;20195;-43
2021/12/13 06:20:38;;;;;;;3.40;2.57;;;8.20;99.90;;;;;;4996997;28;20184;-44
2021/12/13 06:23:12;;;;;;;5.43;2.40;;;8.20;99.90;;;;;;4996752;28;20338;-43
2021/12/13 06:25:40;;;;;;;3.10;2.80;;;8.20;99.90;;;;;;4996835;28;20265;-42
2021/12/13 06:28:15;;;;;;;5.00;3.47;;;8.30;99.90;;;;;;4979327;28;20188;-42
2021/12/13 06:30:42;;;;;;;3.17;2.70;;;8.20;99.90;;;;;;4996778;28;20549;-44
2021/12/13 06:33:11;;;;;;;3.90;3.00;;;8.20;99.90;;;;;;4996493;28;20198;-42
2021/12/13 06:36:00;;;;;;;4.40;2.97;;;8.20;99.90;;;;;;4996922;28;20309;-45
2021/12/13 06:38:40;;;;;;;4.23;2.80;;;8.30;99.90;;;;;;4996882;28;20181;-44
2021/12/13 06:41:12;;;;;;;3.00;2.17;;;8.20;99.90;;;;;;4996777;28;20170;-43
2021/12/13 06:43:47;;;;;;;4.27;2.40;;;8.20;99.90;;;;;;4996469;28;20205;-42
2021/12/13 06:46:22;;;;;;;4.83;2.73;;;8.20;99.90;;;;;;4978984;28;20162;-45
2021/12/13 06:48:51;;;;;;;3.67;2.47;;;8.20;99.90;;;;;;4996388;28;20197;-45
2021/12/13 06:51:35;;;;;;;3.43;2.53;;;8.20;99.90;;;;;;4996665;28;20190;-43
2021/12/13 06:54:06;;;;;;;2.87;2.47;;;8.10;99.90;;;;;;4996360;28;20559;-45
2021/12/13 06:56:34;;;;;;;3.23;2.40;;;8.20;99.90;;;;;;4996559;28;20165;-42
2021/12/13 06:59:02;;;;;;;2.70;2.43;;;8.10;99.90;;;;;;4996355;28;20174;-44
2021/12/13 07:01:32;;;;;;;3.97;2.00;;;8.20;99.90;;;;;;4995959;28;20668;-45
2021/12/13 07:04:10;;;;;;;3.50;2.57;;;8.10;99.90;;;;;;4996457;28;20517;-44
2021/12/13 07:06:39;;;;;;;2.57;2.07;;;8.20;99.90;;;;;;4996142;28;20625;-45
2021/12/13 07:09:23;;;;;;;3.27;2.70;;;8.10;99.90;;;;;;4996102;28;20228;-44
2021/12/13 07:11:56;;;;;;;3.27;2.43;;;8.10;99.90;;;;;;4996288;28;20269;-44
2021/12/13 07:14:36;;;;;;;3.40;2.70;;;8.10;99.90;;;;;;4995777;28;20198;-44
2021/12/13 07:17:31;;;;;;;4.47;2.57;;;8.10;99.90;;;;;;4996125;28;20173;-43
2021/12/13 07:19:59;;;;;;;3.03;2.57;;;8.10;99.90;;;;;;4995980;28;20228;-41
2021/12/13 07:22:28;;;;;;;4.00;2.70;;;8.20;99.90;;;;;;4995590;28;20206;-42
2021/12/13 07:25:01;;;;;;;4.57;3.03;;;8.10;99.90;;;;;;4995611;28;20270;-43
2021/12/13 07:27:32;;;;;;;3.83;2.87;;;8.20;99.90;;;;;;4995917;28;20617;-44
2021/12/13 07:30:05;;;;;;;3.73;2.43;;;8.20;99.90;;;;;;4995882;28;20167;-42
2021/12/13 07:32:37;;;;;;;5.80;2.90;;;8.20;99.90;;;;;;4995663;28;20195;-42
2021/12/13 07:35:12;;;;;;;3.47;2.80;;;8.10;99.90;;;;;;4996027;28;20177;-43
2021/12/13 07:37:46;;;;;;;3.67;3.07;;;8.10;99.90;;;;;;4995711;28;20694;-42
2021/12/13 07:40:23;;;;;;;4.57;3.40;;;8.20;99.90;;;;;;4995666;28;20178;-42
2021/12/13 07:43:16;;;;;;;3.87;2.50;;;8.10;99.90;;;;;;4995454;28;20229;-43
2021/12/13 07:45:57;;;;;;;5.83;2.63;;;8.10;99.90;;;;;;4977810;28;20178;-43
2021/12/13 07:48:41;;;;;;;4.10;2.60;;;8.10;99.90;;;;;;4995214;28;20178;-43
2021/12/13 07:51:15;;;;;;;3.10;2.73;;;8.10;99.90;;;;;;4995170;28;20178;-44
2021/12/13 07:54:08;;;;;;;3.40;2.60;;;8.10;99.90;;;;;;4995454;28;20157;-43
2021/12/13 07:56:37;;;;;;;2.57;2.37;;;8.10;99.90;;;;;;4994455;28;20603;-40
2021/12/13 07:59:08;;;;;;;3.60;2.63;;;8.10;99.90;;;;;;4977474;28;20174;-40
2021/12/13 08:01:41;;;;;;;2.87;2.33;;;8.10;99.90;;;;;;4994878;28;20194;-43
2021/12/13 08:04:12;;;;;;;2.97;2.50;;;8.10;99.90;;;;;;4995227;28;20177;-42
2021/12/13 08:06:51;;;;;;;3.13;2.70;;;8.10;99.90;;;;;;4995083;28;20567;-43
2021/12/13 08:09:20;;;;;;;4.70;2.50;;;8.20;99.90;;;;;;4994854;28;20620;-41
2021/12/13 08:11:49;;;;;;;4.73;2.77;;;8.10;99.90;;;;;;4977271;28;20210;-42
2021/12/13 08:14:23;;;;;;;3.70;2.70;;;8.10;99.90;;;;;;4994495;28;20637;-43
2021/12/13 08:16:49;;;;;;;3.83;2.70;;;8.20;99.90;;;;;;4994670;28;20513;-42
2021/12/13 08:19:27;;;;;;;4.23;2.50;;;8.20;99.90;;;;;;4994870;28;20189;-44
2021/12/13 08:21:57;;;;;;;3.77;2.63;;;8.10;99.90;;;;;;4994466;28;20256;-42
2021/12/13 08:24:29;;;;;;;5.37;2.87;;;8.20;99.90;;;;;;4994656;28;20629;-43
2021/12/13 08:26:59;;;;;;;4.53;2.63;;;8.10;99.90;;;;;;4994695;28;20198;-42
2021/12/13 08:29:32;;;;;;;6.70;2.77;;;8.20;99.90;;;;;;4994717;28;20258;-45
2021/12/13 08:32:08;;;;;;;4.20;2.83;;;8.10;99.90;;;;;;4994358;28;20204;-43
2021/12/13 08:34:37;;;;;;;4.20;2.47;;;8.20;99.90;;;;;;4994710;28;20196;-40
2021/12/13 08:37:34;;;;;;;3.50;2.87;;;8.10;99.90;;;;;;4994579;28;20186;-41
2021/12/13 08:40:11;;;;;;;2.93;2.63;;;8.10;99.90;;;;;;4982621;28;20206;-43
2021/12/13 08:42:43;;;;;;;4.03;2.63;;;8.20;99.90;;;;;;4994402;28;20224;-42
2021/12/13 08:45:22;;;;;;;3.23;2.57;;;8.20;99.90;;;;;;4994464;28;20635;-42
2021/12/13 08:47:55;;;;;;;3.87;2.97;;;8.20;99.90;;;;;;4994462;28;20171;-42
2021/12/13 08:50:31;;;;;;;3.87;2.93;;;8.20;99.90;;;;;;4994797;28;20197;-41
2021/12/13 08:53:09;;;;;;;3.00;2.70;;;8.20;99.90;;;;;;4994080;28;20205;-44
2021/12/13 08:55:42;;;;;;;4.17;2.97;;;8.30;99.90;;;;;;4994024;28;20166;-42
2021/12/13 08:58:09;;;;;;;3.57;3.10;;;8.30;99.90;;;;;;4994285;28;20580;-42
2021/12/13 09:00:47;;;;;;;3.60;3.30;;;8.30;99.90;;;;;;4994025;28;20548;-44
2021/12/13 09:03:35;;;;;;;3.60;2.90;;;8.30;99.90;;;;;;4994332;28;20288;-43
2021/12/13 09:06:16;;;;;;;5.07;2.70;;;8.30;99.90;;;;;;4994304;28;20507;-44
2021/12/13 09:09:09;;;;;;;2.83;2.27;;;8.40;99.90;;;;;;4976402;28;20178;-42
2021/12/13 09:11:43;;;;;;;3.87;2.93;;;8.40;99.90;;;;;;4994206;28;20252;-41
2021/12/13 09:14:41;;;;;;;4.50;2.70;;;8.40;99.90;;;;;;4993715;28;20198;-42
2021/12/13 09:17:21;;;;;;;4.60;2.67;;;8.40;99.90;;;;;;4994569;28;20485;-43
2021/12/13 09:19:59;;;;;;;6.20;2.70;;;8.50;99.90;;;;;;4994075;28;20170;-44
2021/12/13 09:22:34;;;;;;;5.60;2.80;;;8.60;99.90;;;;;;4993668;28;20216;-42
2021/12/13 09:25:10;;;;;;;4.13;2.97;;;8.60;99.90;;;;;;4993922;28;20174;-45
2021/12/13 09:27:45;;;;;;;3.07;2.77;;;8.60;99.90;;;;;;4993691;28;20169;-44
2021/12/13 09:30:27;;;;;;;3.63;2.60;;;8.60;99.90;;;;;;4976241;28;20256;-45
2021/12/13 09:33:03;;;;;;;3.87;3.13;;;8.60;99.90;;;;;;4993755;28;20232;-45
2021/12/13 09:35:40;;;;;;;3.73;3.20;;;8.60;99.90;;;;;;4994178;28;20163;-40
2021/12/13 09:38:24;;;;;;;4.60;2.50;;;8.60;99.90;;;;;;4976276;28;20192;-42
2021/12/13 09:41:13;;;;;;;3.77;2.80;;;8.70;99.90;;;;;;4976255;28;20174;-43
2021/12/13 09:43:56;;;;;;;3.37;2.40;;;8.70;99.90;;;;;;4975988;28;20675;-45
2021/12/13 09:46:42;;;;;;;3.17;2.43;;;8.70;99.90;;;;;;4993560;28;20150;-43
2021/12/13 09:49:28;;;;;;;5.03;2.60;;;8.70;99.90;;;;;;4993775;28;20253;-41
2021/12/13 09:51:56;;;;;;;2.80;2.50;;;8.80;99.90;;;;;;4993100;28;20214;-41
2021/12/13 09:54:27;;;;;;;3.03;2.57;;;8.80;99.90;;;;;;4993614;28;20190;-38
2021/12/13 09:56:53;;;;;;;3.43;2.47;;;8.80;99.90;;;;;;4993590;28;20193;-43
2021/12/13 09:59:39;;;;;;;4.50;2.53;;;8.90;99.90;;;;;;4993698;28;20179;-43
2021/12/13 10:02:11;;;;;;;3.17;2.40;;;8.90;99.90;;;;;;4993707;28;20198;-43
2021/12/13 10:04:42;;;;;;;3.23;2.43;;;9.00;99.90;;;;;;4993639;28;20166;-42
2021/12/13 10:07:14;;;;;;;2.77;2.37;;;9.00;99.90;;;;;;4993523;28;20530;-42
2021/12/13 10:09:44;;;;;;;3.80;2.43;;;9.10;99.90;;;;;;4993570;28;20163;-43
2021/12/13 10:12:14;;;;;;;2.67;2.27;;;9.10;99.90;;;;;;4993269;28;20269;-41
2021/12/13 10:14:46;;;;;;;3.97;2.30;;;9.10;99.90;;;;;;4992924;28;20194;-44
2021/12/13 10:17:14;;;;;;;2.53;2.07;;;9.10;99.90;;;;;;4993571;28;20175;-43
2021/12/13 10:19:49;;;;;;;3.57;2.07;;;9.20;99.90;;;;;;4995326;28;20174;-41
2021/12/13 10:22:19;;;;;;;2.20;1.90;;;9.20;99.90;;;;;;4997078;28;20208;-44
2021/12/13 10:24:59;;;;;;;3.07;1.53;;;9.20;99.90;;;;;;4997087;28;20185;-45
2021/12/13 10:27:25;;;;;;;2.60;1.50;;;9.30;99.90;;;;;;4997023;28;20175;-42
2021/12/13 10:29:58;;;;;;;3.20;1.43;;;9.40;99.90;;;;;;4996901;28;20185;-43
2021/12/13 10:32:29;;;;;;;1.67;1.40;;;9.40;99.90;;;;;;4996962;28;20213;-41
2021/12/13 10:35:00;;;;;;;1.93;1.30;;;9.40;99.90;;;;;;4996981;28;20217;-41
2021/12/13 10:37:34;;;;;;;2.43;1.20;;;9.50;99.90;;;;;;4997168;28;20171;-42
2021/12/13 10:40:20;;;;;;;2.67;1.17;;;9.50;99.90;;;;;;4996579;28;20632;-42
2021/12/13 10:42:54;;;;;;;1.30;1.20;;;9.60;99.90;;;;;;4996652;28;20318;-44
2021/12/13 10:45:24;;;;;;;3.40;1.30;;;9.60;99.90;;;;;;4996626;28;20246;-42
2021/12/13 10:47:55;;;;;;;1.20;1.00;;;9.70;99.90;;;;;;4996745;28;20182;-40
2021/12/13 10:50:28;;;;;;;1.00;1.00;;;9.70;99.90;;;;;;5011440;28;20183;-42
2021/12/13 10:52:54;;;;;;;1.27;1.10;;;9.80;99.90;;;;;;4996835;28;20198;-44
2021/12/13 10:55:33;;;;;;;2.10;1.20;;;9.80;99.90;;;;;;5011387;28;20182;-45
2021/12/13 10:57:59;;;;;;;1.50;1.00;;;9.80;99.90;;;;;;4996279;28;20711;-41
2021/12/13 11:00:30;;;;;;;2.00;1.23;;;9.80;99.90;;;;;;4996217;28;20182;-43
2021/12/13 11:03:00;;;;;;;1.60;1.03;;;9.80;99.90;;;;;;4996061;28;20264;-41
2021/12/13 11:05:28;;;;;;;1.00;0.90;;;9.90;99.90;;;;;;4996646;28;20251;-43
2021/12/13 11:07:56;;;;;;;1.30;1.00;;;10.00;99.90;;;;;;4995968;28;20189;-44
2021/12/13 11:10:34;;;;;;;1.60;0.93;;;10.00;99.90;;;;;;4995972;28;20298;-41
2021/12/13 11:13:00;;;;;;;0.90;0.80;;;10.00;99.90;;;;;;4995856;28;20229;-45
2021/12/13 11:15:39;;;;;;;0.93;0.93;;;10.00;99.90;;;;;;4995717;28;20224;-40
2021/12/13 11:18:12;;;;;;;0.97;0.87;;;10.10;99.90;;;;;;4996095;28;20174;-42
2021/12/13 11:20:42;;;;;;;1.00;0.87;;;10.20;99.90;;;;;;4995692;28;20667;-42
2021/12/13 11:23:09;;;;;;;1.07;0.70;;;10.20;99.90;;;;;;4995705;28;20261;-44
2021/12/13 11:25:43;;;;;;;1.53;0.70;;;10.20;99.90;;;;;;4995834;28;20175;-40
2021/12/13 11:28:11;;;;;;;0.70;0.70;;;10.20;99.90;;;;;;4995749;28;20167;-42
2021/12/13 11:30:42;;;;;;;0.73;0.50;;;10.20;99.90;;;;;;4995946;28;20180;-44
2021/12/13 11:33:10;;;;;;;0.50;0.50;;;10.30;99.90;;;;;;4995729;28;20205;-42
2021/12/13 11:36:07;;;;;;;0.60;0.40;;;10.30;99.90;;;;;;4995874;28;20658;-43
2021/12/13 11:39:10;;;;;;;0.60;0.60;;;10.30;99.90;;;;;;4978118;28;20186;-42
2021/12/13 11:42:12;;;;;;;0.70;0.60;;;10.30;99.90;;;;;;4995578;28;20257;-43
2021/12/13 11:44:56;;;;;;;0.50;0.50;;;10.30;99.90;;;;;;4978054;28;20169;-44
2021/12/13 11:47:40;;;;;;;0.40;0.40;;;10.30;99.90;;;;;;4995579;28;20189;-43
2021/12/13 11:50:43;;;;;;;0.80;0.60;;;10.40;99.90;;;;;;4995253;28;20229;-42
2021/12/13 11:53:45;;;;;;;0.73;0.73;;;10.40;99.90;;;;;;4995515;28;20210;-43
2021/12/13 11:56:48;;;;;;;1.57;0.60;;;10.40;99.90;;;;;;4995278;28;20171;-44
2021/12/13 11:59:37;;;;;;;1.50;0.67;;;10.40;99.90;;;;;;4995186;28;20210;-44
2021/12/13 12:02:18;;;;;;;2.73;0.60;;;10.40;99.90;;;;;;4995066;28;20205;-44
2021/12/13 12:05:11;;;;;;;0.70;0.50;;;10.40;99.90;;;;;;4995305;28;20167;-43
2021/12/13 12:07:46;;;;;;;0.50;0.50;;;10.40;99.90;;;;;;4995781;28;20164;-44
2021/12/13 12:10:36;;;;;;;0.70;0.60;;;10.40;99.90;;;;;;4977461;28;20640;-43
2021/12/13 12:13:11;;;;;;;0.53;0.53;;;10.30;99.90;;;;;;4994915;28;20290;-43
2021/12/13 12:15:41;;;;;;;0.70;0.50;;;10.30;99.90;;;;;;4994831;28;20698;-43
2021/12/13 12:18:15;;;;;;;0.80;0.60;;;10.30;99.90;;;;;;4994856;28;20178;-43
2021/12/13 12:20:50;;;;;;;0.70;0.60;;;10.30;99.90;;;;;;4995342;28;20163;-43
2021/12/13 12:23:31;;;;;;;0.60;0.60;;;10.30;99.90;;;;;;5009560;28;20210;-43
2021/12/13 12:26:00;;;;;;;1.30;0.70;;;10.30;99.90;;;;;;4994804;28;20182;-44
2021/12/13 12:28:29;;;;;;;0.83;0.67;;;10.20;99.90;;;;;;4994683;28;20179;-44
2021/12/13 12:30:58;;;;;;;1.27;0.60;;;10.30;99.90;;;;;;4994178;28;20184;-43
2021/12/13 12:33:33;;;;;;;0.87;0.60;;;10.30;99.90;;;;;;4994591;28;20226;-44
2021/12/13 12:36:05;;;;;;;1.60;0.60;;;10.30;99.90;;;;;;4994513;28;20172;-42
2021/12/13 12:38:33;;;;;;;0.77;0.50;;;10.30;99.90;;;;;;4977023;28;20177;-42
2021/12/13 12:41:45;;;;;;;0.53;0.50;;;10.30;99.90;;;;;;4994497;28;20699;-41
2021/12/13 12:44:21;;;;;;;1.23;0.67;;;10.30;99.90;;;;;;4978798;28;20336;-42
2021/12/13 12:46:48;;;;;;;1.33;0.73;;;10.30;99.90;;;;;;4994371;28;20170;-42
2021/12/13 12:49:22;;;;;;;1.87;0.87;;;10.30;99.90;;;;;;4994369;28;20712;-42
2021/12/13 12:51:50;;;;;;;1.00;0.70;;;10.30;99.90;;;;;;4994061;28;20736;-42
2021/12/13 12:54:20;;;;;;;0.80;0.80;;;10.30;99.90;;;;;;4994384;28;20195;-44
2021/12/13 12:56:56;;;;;;;0.87;0.80;;;10.30;99.90;;;;;;4994384;28;20170;-41
2021/12/13 12:59:27;;;;;;;1.10;0.97;;;10.20;99.90;;;;;;4994658;28;20232;-44
2021/12/13 13:02:00;;;;;;;0.60;0.60;;;10.20;99.90;;;;;;4993895;28;20745;-44
2021/12/13 13:04:50;;;;;;;1.00;0.73;;;10.20;99.90;;;;;;4976625;28;20173;-42
2021/12/13 13:07:27;;;;;;;1.03;0.80;;;10.20;99.90;;;;;;4993912;28;20599;-43
2021/12/13 13:12:47;;;;;;;0.83;0.80;;;10.20;99.90;;;;;;4994085;28;20212;-41
2021/12/13 13:15:19;;;;;;;1.07;0.90;;;10.20;99.90;;;;;;4993723;28;20276;-44
2021/12/13 13:17:51;;;;;;;0.80;0.80;;;10.20;99.90;;;;;;4976468;28;20651;-40
2021/12/13 13:20:57;;;;;;;1.17;0.80;;;10.10;99.90;;;;;;4993817;28;20166;-42
2021/12/13 13:23:26;;;;;;;3.53;0.70;;;10.10;99.90;;;;;;4964471;28;20236;-43
2021/12/13 13:26:00;;;;;;;1.03;0.70;;;10.10;99.90;;;;;;4994063;28;20180;-44
2021/12/13 13:28:34;;;;;;;2.00;0.60;;;10.00;99.90;;;;;;4994003;28;20168;-42
2021/12/13 13:31:07;;;;;;;1.43;0.87;;;10.00;99.90;;;;;;4993947;28;20179;-45
2021/12/13 13:33:41;;;;;;;1.13;0.60;;;10.00;99.90;;;;;;4993933;28;20175;-43
2021/12/13 13:36:09;;;;;;;3.10;0.60;;;10.00;99.90;;;;;;4993750;28;20160;-42
2021/12/13 13:38:35;;;;;;;1.10;0.70;;;10.00;99.90;;;;;;4993662;28;20180;-40
2021/12/13 13:41:01;;;;;;;0.70;0.60;;;10.00;99.90;;;;;;4976194;28;20192;-41
2021/12/13 13:43:31;;;;;;;1.13;0.70;;;10.00;99.90;;;;;;4993501;28;20208;-39
2021/12/13 13:45:59;;;;;;;1.00;0.60;;;10.00;99.90;;;;;;4993493;28;20470;-43
2021/12/13 13:48:32;;;;;;;0.57;0.57;;;10.00;99.90;;;;;;4993761;28;20199;-40